createdAt,value
2018-04-12T00:02:30.283Z,45.88
2018-04-12T00:05:04.328Z,45.93
2018-04-12T00:07:37.584Z,45.86
2018-04-12T00:10:10.869Z,45.83
2018-04-12T00:12:44.125Z,45.66
2018-04-12T00:15:17.395Z,45.61
2018-04-12T00:17:50.652Z,45.55
2018-04-12T00:20:23.933Z,45.47
2018-04-12T00:22:57.179Z,44.57
2018-04-12T00:25:30.465Z,44.48
2018-04-12T00:28:03.720Z,44.07
2018-04-12T00:30:37.000Z,43.50
2018-04-12T00:33:10.255Z,43.61
2018-04-12T00:35:43.539Z,43.45
2018-04-12T00:38:40.839Z,43.07
2018-04-12T00:41:14.096Z,42.40
2018-04-12T00:43:47.384Z,42.59
2018-04-12T00:46:20.639Z,42.25
2018-04-12T00:48:53.908Z,42.25
2018-04-12T00:51:27.164Z,42.15
2018-04-12T00:54:06.355Z,42.07
2018-04-12T00:56:39.611Z,42.11
2018-04-12T00:59:12.896Z,41.85
2018-04-12T01:01:46.154Z,41.66
2018-04-12T01:04:20.461Z,41.84
2018-04-12T01:06:53.719Z,41.96
2018-04-12T01:09:27.180Z,42.20
2018-04-12T01:12:00.443Z,42.47
2018-04-12T01:14:33.715Z,42.71
2018-04-12T01:17:06.976Z,42.85
2018-04-12T01:19:40.248Z,42.93
2018-04-12T01:22:14.272Z,43.00
2018-04-12T01:24:47.542Z,42.93
2018-04-12T01:27:21.568Z,42.86
2018-04-12T01:29:55.608Z,42.77
2018-04-12T01:32:28.871Z,42.67
2018-04-12T01:35:02.920Z,42.69
2018-04-12T01:37:36.175Z,42.74
2018-04-12T01:40:10.215Z,42.80
2018-04-12T01:42:43.481Z,42.78
2018-04-12T01:45:16.752Z,42.77
2018-04-12T01:47:50.026Z,42.82
2018-04-12T01:50:23.286Z,42.88
2018-04-12T01:52:56.570Z,42.87
2018-04-12T01:55:29.826Z,42.85
2018-04-12T01:58:03.099Z,42.88
2018-04-12T02:00:36.359Z,42.85
2018-04-12T02:03:09.652Z,42.86
2018-04-12T02:06:07.636Z,42.87
2018-04-12T02:08:40.907Z,42.89
2018-04-12T02:11:14.172Z,42.94
2018-04-12T02:13:48.220Z,43.08
2018-04-12T02:16:21.479Z,43.10
2018-04-12T02:18:55.520Z,43.19
2018-04-12T02:21:28.780Z,43.16
2018-04-12T02:24:02.811Z,43.11
2018-04-12T02:26:36.079Z,42.89
2018-04-12T02:29:09.349Z,42.94
2018-04-12T02:31:42.618Z,42.87
2018-04-12T02:34:15.885Z,42.82
2018-04-12T02:36:49.147Z,42.70
2018-04-12T02:39:22.423Z,42.72
2018-04-12T02:41:55.687Z,42.72
2018-04-12T02:44:28.969Z,42.71
2018-04-12T02:47:02.248Z,42.61
2018-04-12T02:49:36.256Z,42.57
2018-04-12T02:52:10.290Z,42.58
2018-04-12T02:54:43.560Z,42.48
2018-04-12T02:57:17.594Z,42.48
2018-04-12T02:59:50.854Z,42.47
2018-04-12T03:02:24.123Z,42.47
2018-04-12T03:04:57.376Z,42.49
2018-04-12T03:07:30.652Z,42.48
2018-04-12T03:10:04.668Z,42.39
2018-04-12T03:12:38.705Z,42.34
2018-04-12T03:15:11.959Z,42.25
2018-04-12T03:17:45.997Z,42.27
2018-04-12T03:20:19.246Z,42.18
2018-04-12T03:22:52.519Z,42.16
2018-04-12T03:25:25.783Z,42.15
2018-04-12T03:27:59.064Z,42.13
2018-04-12T03:30:32.323Z,42.09
2018-04-12T03:33:05.609Z,42.04
2018-04-12T03:35:38.859Z,42.03
2018-04-12T03:38:31.536Z,42.02
2018-04-12T03:41:04.818Z,42.00
2018-04-12T03:43:38.071Z,42.03
2018-04-12T03:46:12.116Z,42.07
2018-04-12T03:48:45.424Z,42.09
2018-04-12T03:51:19.405Z,42.13
2018-04-12T03:53:52.660Z,42.16
2018-04-12T03:56:25.940Z,42.20
2018-04-12T03:58:59.191Z,42.26
2018-04-12T04:01:32.463Z,42.36
2018-04-12T04:04:06.479Z,42.53
2018-04-12T04:06:39.758Z,42.61
2018-04-12T04:09:13.780Z,42.66
2018-04-12T04:11:47.815Z,42.67
2018-04-12T04:14:38.936Z,42.62
2018-04-12T04:17:30.028Z,42.55
2018-04-12T04:20:21.924Z,42.42
2018-04-12T04:22:55.201Z,42.38
2018-04-12T04:25:28.455Z,42.27
2018-04-12T04:28:01.726Z,42.27
2018-04-12T04:30:35.743Z,42.29
2018-04-12T04:33:09.786Z,42.27
2018-04-12T04:35:43.044Z,42.23
2018-04-12T04:38:16.319Z,42.29
2018-04-12T04:40:49.576Z,42.21
2018-04-12T04:43:22.852Z,42.19
2018-04-12T04:45:56.104Z,42.23
2018-04-12T04:48:29.377Z,42.26
2018-04-12T04:51:02.631Z,42.22
2018-04-12T04:53:35.911Z,42.22
2018-04-12T04:56:09.176Z,42.18
2018-04-12T04:58:42.453Z,42.17
2018-04-12T05:01:15.707Z,42.18
2018-04-12T05:03:48.980Z,42.20
2018-04-12T05:06:23.005Z,42.30
2018-04-12T05:08:56.275Z,42.33
2018-04-12T05:11:30.301Z,42.45
2018-04-12T05:14:04.336Z,42.50
2018-04-12T05:16:37.594Z,42.56
2018-04-12T05:19:11.639Z,42.54
2018-04-12T05:21:44.887Z,42.59
2018-04-12T05:24:18.172Z,42.62
2018-04-12T05:26:51.436Z,42.70
2018-04-12T05:29:24.717Z,42.72
2018-04-12T05:31:57.963Z,42.71
2018-04-12T05:34:31.273Z,42.75
2018-04-12T05:37:10.415Z,43.11
2018-04-12T05:39:43.684Z,42.87
2018-04-12T05:42:16.960Z,42.86
2018-04-12T05:44:50.245Z,42.64
2018-04-12T05:47:23.491Z,42.57
2018-04-12T05:49:56.763Z,42.46
2018-04-12T05:52:30.787Z,42.47
2018-04-12T05:55:04.059Z,42.30
2018-04-12T05:57:37.329Z,42.19
2018-04-12T06:00:10.589Z,42.11
2018-04-12T06:02:43.843Z,42.10
2018-04-12T06:05:17.119Z,42.12
2018-04-12T06:07:50.379Z,42.05
2018-04-12T06:10:23.646Z,42.01
2018-04-12T06:12:57.673Z,41.88
2018-04-12T06:15:30.943Z,41.77
2018-04-12T06:18:04.191Z,41.66
2018-04-12T06:20:37.479Z,41.56
2018-04-12T06:23:10.733Z,41.50
2018-04-12T06:25:44.775Z,41.48
2018-04-12T06:28:18.032Z,41.15
2018-04-12T06:30:52.073Z,41.19
2018-04-12T06:33:25.328Z,41.24
2018-04-12T06:35:58.615Z,41.55
2018-04-12T06:38:31.869Z,41.50
2018-04-12T06:41:05.136Z,41.16
2018-04-12T06:43:38.396Z,41.53
2018-04-12T06:46:11.681Z,41.75
2018-04-12T06:48:44.946Z,41.37
2018-04-12T06:51:18.229Z,41.08
2018-04-12T06:53:51.563Z,41.07
2018-04-12T06:56:24.804Z,40.91
2018-04-12T06:58:58.087Z,41.01
2018-04-12T07:01:32.106Z,40.71
2018-04-12T07:04:05.701Z,40.78
2018-04-12T07:06:38.955Z,40.45
2018-04-12T07:09:12.243Z,40.32
2018-04-12T07:11:45.504Z,40.25
2018-04-12T07:14:18.776Z,39.86
2018-04-12T07:16:52.040Z,39.92
2018-04-12T07:19:25.315Z,39.90
2018-04-12T07:21:58.574Z,39.78
2018-04-12T07:24:31.861Z,39.70
2018-04-12T07:27:05.163Z,39.47
2018-04-12T07:29:38.453Z,39.28
2018-04-12T07:32:11.707Z,39.33
2018-04-12T07:34:44.980Z,39.09
2018-04-12T07:37:18.232Z,38.99
2018-04-12T07:39:51.504Z,38.86
2018-04-12T07:42:25.527Z,38.96
2018-04-12T07:44:58.813Z,39.01
2018-04-12T07:47:32.061Z,38.68
2018-04-12T07:50:05.325Z,38.44
2018-04-12T07:52:38.595Z,38.45
2018-04-12T07:55:11.874Z,38.42
2018-04-12T07:57:45.129Z,38.26
2018-04-12T08:00:19.163Z,38.18
2018-04-12T08:02:52.428Z,38.01
2018-04-12T08:05:25.708Z,37.63
2018-04-12T08:07:58.981Z,37.29
2018-04-12T08:10:32.223Z,37.48
2018-04-12T08:13:05.480Z,37.39
2018-04-12T08:15:38.760Z,37.32
2018-04-12T08:18:12.798Z,37.09
2018-04-12T08:20:46.051Z,36.86
2018-04-12T08:23:19.332Z,36.83
2018-04-12T08:25:52.595Z,36.79
2018-04-12T08:28:25.867Z,36.61
2018-04-12T08:30:59.120Z,36.50
2018-04-12T08:33:32.393Z,36.20
2018-04-12T08:36:05.657Z,35.96
2018-04-12T08:38:38.932Z,35.99
2018-04-12T08:41:12.184Z,35.78
2018-04-12T08:43:45.459Z,35.28
2018-04-12T08:46:18.708Z,35.41
2018-04-12T08:48:52.756Z,35.04
2018-04-12T08:51:26.012Z,34.84
2018-04-12T08:54:00.047Z,34.44
2018-04-12T08:56:33.304Z,34.10
2018-04-12T08:59:07.344Z,34.26
2018-04-12T09:01:40.603Z,34.05
2018-04-12T09:04:13.867Z,34.00
2018-04-12T09:06:47.151Z,33.39
2018-04-12T09:09:20.405Z,33.19
2018-04-12T09:11:53.661Z,33.03
2018-04-12T09:14:26.927Z,32.93
2018-04-12T09:17:00.176Z,32.55
2018-04-12T09:19:34.221Z,32.45
2018-04-12T09:22:07.489Z,32.26
2018-04-12T09:24:41.531Z,32.23
2018-04-12T09:27:14.786Z,32.31
2018-04-12T09:29:48.827Z,32.32
2018-04-12T09:32:22.088Z,32.50
2018-04-12T09:34:56.129Z,32.50
2018-04-12T09:37:29.395Z,32.44
2018-04-12T09:40:03.434Z,32.16
2018-04-12T09:42:36.692Z,31.55
2018-04-12T09:45:10.753Z,31.66
2018-04-12T09:47:44.004Z,31.89
2018-04-12T09:50:18.049Z,31.38
2018-04-12T09:52:51.309Z,31.17
2018-04-12T09:55:25.348Z,30.92
2018-04-12T09:57:58.606Z,30.84
2018-04-12T10:00:31.872Z,31.09
2018-04-12T10:03:10.734Z,30.78
2018-04-12T10:05:49.593Z,30.39
2018-04-12T10:08:27.835Z,30.52
2018-04-12T10:11:01.104Z,30.15
2018-04-12T10:13:34.355Z,28.52
2018-04-12T10:16:08.435Z,28.48
2018-04-12T10:18:41.715Z,28.14
2018-04-12T10:21:14.980Z,28.41
2018-04-12T10:23:48.235Z,28.28
2018-04-12T10:26:21.513Z,28.16
2018-04-12T10:28:55.546Z,27.68
2018-04-12T10:31:28.813Z,27.36
2018-04-12T10:34:02.066Z,27.42
2018-04-12T10:36:35.343Z,27.29
2018-04-12T10:39:09.372Z,27.65
2018-04-12T10:41:42.697Z,27.63
2018-04-12T10:44:16.679Z,27.57
2018-04-12T10:46:49.966Z,26.63
2018-04-12T10:49:23.985Z,26.42
2018-04-12T10:51:57.318Z,26.52
2018-04-12T10:54:31.279Z,26.67
2018-04-12T10:57:04.556Z,26.80
2018-04-12T10:59:38.606Z,26.47
2018-04-12T11:02:11.864Z,26.51
2018-04-12T11:04:45.137Z,26.41
2018-04-12T11:07:18.393Z,26.11
2018-04-12T11:09:51.675Z,25.33
2018-04-12T11:12:24.928Z,25.65
2018-04-12T11:14:58.200Z,23.77
2018-04-12T11:17:31.452Z,23.29
2018-04-12T11:20:04.732Z,22.60
2018-04-12T11:22:38.753Z,23.27
2018-04-12T11:25:12.020Z,23.12
2018-04-12T11:27:45.269Z,22.48
2018-04-12T11:30:18.553Z,22.77
2018-04-12T11:32:51.813Z,22.57
2018-04-12T11:35:25.852Z,22.61
2018-04-12T11:37:59.108Z,22.56
2018-04-12T11:40:33.148Z,22.34
2018-04-12T11:43:06.399Z,22.30
2018-04-12T11:45:39.671Z,21.88
2018-04-12T11:48:12.948Z,21.89
2018-04-12T11:50:46.196Z,21.45
2018-04-12T11:53:19.456Z,21.31
2018-04-12T11:55:52.751Z,21.44
2018-04-12T11:58:25.985Z,21.03
2018-04-12T12:00:59.250Z,20.71
2018-04-12T12:03:32.512Z,20.67
2018-04-12T12:06:05.790Z,20.56
2018-04-12T12:08:39.056Z,20.02
2018-04-12T12:11:13.099Z,20.33
2018-04-12T12:13:46.360Z,20.01
2018-04-12T12:16:20.408Z,19.89
2018-04-12T12:18:53.675Z,20.03
2018-04-12T12:21:26.942Z,19.97
2018-04-12T12:24:00.212Z,20.20
2018-04-12T12:26:33.492Z,19.98
2018-04-12T12:29:06.768Z,19.97
2018-04-12T12:31:40.020Z,19.29
2018-04-12T12:34:13.289Z,19.41
2018-04-12T12:36:46.552Z,19.04
2018-04-12T12:39:19.827Z,18.96
2018-04-12T12:41:53.860Z,18.94
2018-04-12T12:44:27.140Z,18.84
2018-04-12T12:47:00.393Z,18.54
2018-04-12T12:49:33.668Z,18.37
2018-04-12T12:52:06.912Z,18.26
2018-04-12T12:54:40.960Z,18.35
2018-04-12T12:57:14.207Z,18.34
2018-04-12T12:59:48.252Z,18.03
2018-04-12T13:02:21.516Z,18.03
2018-04-12T13:04:54.799Z,18.15
2018-04-12T13:07:28.057Z,17.79
2018-04-12T13:10:01.391Z,17.76
2018-04-12T13:12:34.601Z,17.82
2018-04-12T13:15:07.880Z,18.01
2018-04-12T13:17:41.136Z,18.32
2018-04-12T13:20:14.412Z,18.40
2018-04-12T13:22:47.673Z,17.91
2018-04-12T13:25:20.947Z,17.96
2018-04-12T13:27:54.211Z,17.87
2018-04-12T13:30:27.478Z,17.69
2018-04-12T13:33:00.780Z,17.78
2018-04-12T13:35:34.008Z,17.42
2018-04-12T13:38:07.267Z,17.26
2018-04-12T13:40:40.549Z,16.95
2018-04-12T13:43:13.805Z,16.88
2018-04-12T13:45:47.082Z,17.15
2018-04-12T13:48:20.334Z,17.02
2018-04-12T13:50:53.613Z,17.08
2018-04-12T13:53:27.641Z,16.94
2018-04-12T13:56:00.907Z,17.05
2018-04-12T13:58:34.157Z,16.96
2018-04-12T14:01:07.429Z,16.58
2018-04-12T14:03:40.693Z,16.18
2018-04-12T14:06:14.740Z,16.27
2018-04-12T14:08:47.985Z,16.11
2018-04-12T14:11:21.401Z,15.87
2018-04-12T14:13:55.425Z,15.32
2018-04-12T14:16:28.705Z,15.01
2018-04-12T14:19:01.961Z,15.02
2018-04-12T14:21:35.237Z,14.87
2018-04-12T14:24:08.505Z,14.96
2018-04-12T14:26:41.791Z,14.89
2018-04-12T14:29:18.597Z,14.62
2018-04-12T14:31:51.866Z,14.39
2018-04-12T14:34:25.168Z,14.31
2018-04-12T14:36:58.431Z,14.53
2018-04-12T14:39:33.671Z,14.50
2018-04-12T14:42:07.697Z,14.32
2018-04-12T14:44:41.755Z,14.52
2018-04-12T14:47:15.035Z,14.81
2018-04-12T14:49:48.300Z,15.17
2018-04-12T14:52:21.564Z,15.58
2018-04-12T14:54:54.871Z,15.90
2018-04-12T14:57:28.134Z,15.97
2018-04-12T15:00:01.409Z,16.20
2018-04-12T15:02:34.673Z,16.33
2018-04-12T15:05:07.949Z,16.61
2018-04-12T15:07:41.972Z,16.85
2018-04-12T15:10:15.250Z,17.04
2018-04-12T15:12:48.505Z,17.41
2018-04-12T15:15:21.772Z,17.48
2018-04-12T15:17:55.040Z,17.39
2018-04-12T15:20:29.092Z,17.32
2018-04-12T15:23:02.359Z,17.39
2018-04-12T15:25:35.635Z,17.49
2018-04-12T15:28:08.929Z,17.35
2018-04-12T15:30:42.970Z,17.35
2018-04-12T15:33:16.228Z,17.44
2018-04-12T15:35:50.296Z,17.52
2018-04-12T15:38:23.564Z,17.39
2018-04-12T15:40:56.849Z,17.55
2018-04-12T15:43:30.109Z,17.62
2018-04-12T15:46:03.751Z,16.86
2018-04-12T15:48:37.013Z,17.14
2018-04-12T15:51:10.289Z,17.00
2018-04-12T15:53:43.553Z,17.26
2018-04-12T15:56:16.830Z,17.07
2018-04-12T15:58:50.090Z,17.35
2018-04-12T16:01:23.633Z,17.75
2018-04-12T16:03:56.925Z,18.13
2018-04-12T16:06:30.427Z,18.23
2018-04-12T16:09:03.825Z,18.45
2018-04-12T16:11:37.190Z,18.66
2018-04-12T16:14:11.224Z,18.92
2018-04-12T16:16:44.498Z,18.93
2018-04-12T16:19:18.526Z,19.07
2018-04-12T16:21:51.805Z,19.17
2018-04-12T16:24:25.830Z,19.19
2018-04-12T16:27:01.465Z,19.43
2018-04-12T16:29:35.511Z,19.62
2018-04-12T16:32:08.793Z,19.63
2018-04-12T16:34:42.049Z,19.87
2018-04-12T16:37:15.319Z,19.97
2018-04-12T16:39:48.576Z,20.03
2018-04-12T16:42:21.852Z,20.20
2018-04-12T16:44:55.128Z,20.24
2018-04-12T16:47:29.165Z,20.15
2018-04-12T16:50:02.425Z,20.24
2018-04-12T16:52:35.701Z,20.35
2018-04-12T16:55:08.956Z,20.49
2018-04-12T16:57:42.349Z,20.60
2018-04-12T17:00:15.693Z,20.68
2018-04-12T17:02:48.976Z,20.88
2018-04-12T17:05:22.245Z,21.01
2018-04-12T17:07:55.516Z,21.13
2018-04-12T17:10:28.780Z,21.33
2018-04-12T17:13:02.064Z,21.42
2018-04-12T17:15:35.325Z,21.56
2018-04-12T17:18:08.614Z,21.64
2018-04-12T17:20:41.865Z,21.63
2018-04-12T17:23:15.186Z,21.78
2018-04-12T17:25:48.440Z,21.90
2018-04-12T17:28:21.714Z,22.01
2018-04-12T17:30:54.960Z,22.07
2018-04-12T17:33:28.248Z,22.22
2018-04-12T17:36:02.283Z,22.33
2018-04-12T17:38:35.570Z,22.43
2018-04-12T17:41:08.828Z,22.49
2018-04-12T17:43:42.107Z,22.66
2018-04-12T17:46:15.360Z,22.70
2018-04-12T17:48:48.649Z,22.77
2018-04-12T17:51:22.388Z,22.85
2018-04-12T17:53:55.660Z,23.07
2018-04-12T17:56:28.915Z,23.17
2018-04-12T17:59:02.197Z,23.22
2018-04-12T18:01:35.444Z,23.44
2018-04-12T18:04:08.719Z,23.54
2018-04-12T18:06:42.005Z,23.68
2018-04-12T18:09:15.258Z,23.79
2018-04-12T18:11:48.538Z,23.85
2018-04-12T18:14:21.803Z,23.92
2018-04-12T18:16:55.077Z,23.96
2018-04-12T18:19:28.340Z,24.12
2018-04-12T18:22:01.625Z,24.30
2018-04-12T18:24:35.815Z,24.43
2018-04-12T18:27:09.100Z,24.53
2018-04-12T18:29:42.360Z,24.63
2018-04-12T18:32:16.393Z,24.80
2018-04-12T18:34:49.651Z,24.80
2018-04-12T18:37:22.928Z,24.94
2018-04-12T18:39:56.244Z,24.98
2018-04-12T18:42:29.507Z,25.14
2018-04-12T18:45:02.770Z,25.23
2018-04-12T18:47:36.060Z,25.28
2018-04-12T18:50:09.313Z,25.37
2018-04-12T18:52:42.589Z,25.44
2018-04-12T18:55:15.839Z,25.57
2018-04-12T18:57:49.129Z,25.75
2018-04-12T19:00:22.382Z,25.96
2018-04-12T19:02:55.750Z,26.12
2018-04-12T19:05:29.003Z,26.23
2018-04-12T19:08:02.291Z,26.28
2018-04-12T19:10:36.322Z,26.42
2018-04-12T19:13:09.603Z,26.52
2018-04-12T19:15:43.616Z,26.55
2018-04-12T19:18:17.665Z,26.59
2018-04-12T19:20:50.926Z,26.70
2018-04-12T19:23:24.214Z,27.03
2018-04-12T19:25:58.255Z,27.24
2018-04-12T19:28:31.533Z,27.29
2018-04-12T19:31:04.775Z,27.31
2018-04-12T19:33:38.055Z,27.26
2018-04-12T19:36:11.315Z,27.45
2018-04-12T19:38:44.606Z,27.48
2018-04-12T19:41:17.852Z,27.41
2018-04-12T19:43:51.125Z,27.56
2018-04-12T19:46:24.368Z,27.96
2018-04-12T19:48:58.408Z,28.30
2018-04-12T19:51:31.671Z,28.42
2018-04-12T19:54:04.936Z,28.42
2018-04-12T19:56:38.184Z,28.52
2018-04-12T19:59:11.460Z,28.24
2018-04-12T20:01:45.500Z,28.19
2018-04-12T20:04:18.767Z,28.15
2018-04-12T20:06:52.059Z,27.94
2018-04-12T20:09:25.331Z,28.35
2018-04-12T20:11:58.636Z,28.67
2018-04-12T20:14:32.665Z,28.76
2018-04-12T20:17:05.971Z,28.90
2018-04-12T20:19:39.228Z,29.01
2018-04-12T20:22:12.500Z,28.99
2018-04-12T20:24:45.753Z,29.25
2018-04-12T20:27:19.045Z,29.43
2018-04-12T20:29:52.296Z,29.53
2018-04-12T20:32:25.569Z,29.35
2018-04-12T20:34:58.838Z,29.34
2018-04-12T20:37:32.116Z,29.50
2018-04-12T20:40:05.367Z,29.44
2018-04-12T20:42:38.675Z,29.53
2018-04-12T20:45:12.701Z,29.38
2018-04-12T20:47:46.318Z,29.31
2018-04-12T20:50:19.569Z,29.03
2018-04-12T20:52:53.725Z,28.76
2018-04-12T20:55:26.978Z,28.69
2018-04-12T20:58:00.282Z,29.09
2018-04-12T21:00:34.299Z,29.03
2018-04-12T21:03:07.608Z,28.82
2018-04-12T21:05:40.856Z,28.79
2018-04-12T21:08:14.150Z,28.76
2018-04-12T21:10:47.397Z,28.78
2018-04-12T21:13:20.684Z,28.87
2018-04-12T21:15:53.952Z,29.00
2018-04-12T21:18:27.221Z,29.25
2018-04-12T21:21:00.461Z,29.63
2018-04-12T21:23:33.743Z,29.94
2018-04-12T21:26:06.996Z,29.97
2018-04-12T21:28:40.273Z,30.22
2018-04-12T21:31:13.528Z,30.58
2018-04-12T21:33:47.561Z,30.61
2018-04-12T21:36:20.807Z,30.63
2018-04-12T21:38:54.084Z,30.70
2018-04-12T21:41:27.344Z,30.77
2018-04-12T21:44:00.619Z,31.05
2018-04-12T21:46:33.876Z,31.20
2018-04-12T21:49:07.166Z,31.06
2018-04-12T21:51:40.416Z,31.08
2018-04-12T21:54:13.683Z,31.15
2018-04-12T21:56:47.707Z,31.14
2018-04-12T21:59:21.748Z,31.03
2018-04-12T22:01:55.003Z,30.89
2018-04-12T22:04:29.027Z,30.98
2018-04-12T22:07:02.311Z,31.07
2018-04-12T22:09:36.360Z,31.32
2018-04-12T22:12:09.669Z,31.62
2018-04-12T22:14:42.917Z,31.79
2018-04-12T22:17:17.002Z,32.05
2018-04-12T22:19:50.259Z,32.09
2018-04-12T22:22:23.532Z,32.18
2018-04-12T22:24:56.792Z,32.19
2018-04-12T22:27:30.064Z,32.10
2018-04-12T22:30:03.316Z,32.27
2018-04-12T22:32:36.581Z,32.31
2018-04-12T22:35:10.615Z,32.38
2018-04-12T22:37:43.883Z,32.61
2018-04-12T22:40:17.144Z,32.84
2018-04-12T22:42:50.417Z,33.08
2018-04-12T22:45:23.671Z,33.38
2018-04-12T22:47:56.964Z,33.57
2018-04-12T22:50:30.983Z,33.81
2018-04-12T22:53:04.253Z,34.05
2018-04-12T22:55:37.500Z,34.27
2018-04-12T22:58:10.771Z,34.32
2018-04-12T23:00:44.028Z,34.42
2018-04-12T23:03:17.305Z,34.45
2018-04-12T23:05:50.572Z,34.57
2018-04-12T23:08:23.839Z,34.63
2018-04-12T23:10:57.860Z,34.74
2018-04-12T23:13:31.138Z,34.82
2018-04-12T23:16:04.391Z,34.93
2018-04-12T23:18:37.659Z,34.95
2018-04-12T23:21:10.924Z,34.97
2018-04-12T23:23:44.964Z,35.04
2018-04-12T23:26:18.224Z,35.17
2018-04-12T23:28:51.487Z,35.07
2018-04-12T23:31:24.748Z,35.04
2018-04-12T23:33:58.024Z,34.53
2018-04-12T23:36:31.285Z,34.10
2018-04-12T23:39:04.566Z,33.88
2018-04-12T23:41:37.822Z,33.96
2018-04-12T23:44:11.101Z,34.06
2018-04-12T23:46:44.347Z,34.12
2018-04-12T23:49:17.627Z,34.20
2018-04-12T23:51:50.888Z,34.16
2018-04-12T23:54:24.163Z,34.16
2018-04-12T23:56:57.420Z,34.06
2018-04-12T23:59:30.696Z,34.01
